CheckWX is a tool to help pilots better visualize weather data.  It is not intended as a substitute for an official pre-flight weather briefing.

01:25:44 UTC

WSAP TAF
Paya Lebar Air Base Airport
Singapore
TAF WSAP 042300Z 0500/0606 16007KT 9999 FEW015 SCT020 TEMPO 0505/0508 4000 TSRA FEW012CB BKN015

Jul-5@
00:00 UTC

Jul-5 @ 00:00 UTC

Jul-6@
06:00 UTC

Jul-6 @ 06:00 UTC

TAF WSAP 042300Z 0500/0606 16007KT 9999 FEW015 SCT020
Wind
  • 160° at 7 KTS
Cloud Levels
  • Few at 1,500' AGL
  • Scattered at 2,000' AGL

Jul-5@
05:00 UTC

Jul-5 @ 05:00 UTC

Jul-5@
08:00 UTC

Jul-5 @ 08:00 UTC

TEMPO 0505/0508 4000 TSRA FEW012CB BKN015

Expired

Conditions
Thunderstorm, Rain
Cloud Levels
  • Few at 1,200' AGL
  • Broken at 1,500' AGL